Time;durP1;ratioP1;P1;durP2;ratioP2;P2;SDS_P1;SDS_P2;PMS_P1;PMS_P2;Temp;Humidity;BMP_temperature;BMP_pressure;BME280_temperature;BME280_humidity;BME280_pressure;Samples;Min_cycle;Max_cycle;Signal;HPM_P1;HPM_P2
2020/12/23 00:02:04;;;;;;;21.33;12.02;;;10.60;99.90;;;;;;5096067;28;20051;-54
2020/12/23 00:05:10;;;;;;;14.82;9.65;;;10.70;99.90;;;;;;5095214;28;20056;-55
2020/12/23 00:08:14;;;;;;;13.10;8.82;;;10.70;99.90;;;;;;5095281;28;20039;-59
2020/12/23 00:11:19;;;;;;;11.23;7.30;;;10.80;99.90;;;;;;5099542;28;20567;-59
2020/12/23 00:14:23;;;;;;;67.15;22.15;;;10.80;99.90;;;;;;5098377;28;20043;-58
2020/12/23 00:17:28;;;;;;;211.43;51.17;;;10.90;99.90;;;;;;5093969;28;20422;-56
2020/12/23 00:20:32;;;;;;;72.15;43.20;;;10.70;99.90;;;;;;5093281;28;20417;-58
2020/12/23 00:23:36;;;;;;;71.93;45.17;;;10.60;99.90;;;;;;5096535;28;20051;-56
2020/12/23 00:26:43;;;;;;;88.10;48.03;;;10.60;99.90;;;;;;5093133;28;20043;-58
2020/12/23 00:29:49;;;;;;;86.93;43.67;;;10.60;99.90;;;;;;5082234;28;20051;-55
2020/12/23 00:32:53;;;;;;;68.70;40.72;;;10.40;99.90;;;;;;5095875;28;20039;-54
2020/12/23 00:35:59;;;;;;;51.50;31.33;;;10.40;99.90;;;;;;5095459;28;20051;-55
2020/12/23 00:39:04;;;;;;;51.28;31.23;;;10.40;99.90;;;;;;5099176;28;20374;-54
2020/12/23 00:42:08;;;;;;;75.75;44.63;;;10.50;99.90;;;;;;5094937;28;20046;-56
2020/12/23 00:45:12;;;;;;;100.50;54.58;;;10.40;99.90;;;;;;5080682;28;20505;-57
2020/12/23 00:48:17;;;;;;;124.15;61.22;;;10.20;99.90;;;;;;5093860;28;20051;-54
2020/12/23 00:51:21;;;;;;;96.57;54.58;;;10.10;99.90;;;;;;5099826;28;20072;-53
2020/12/23 00:54:27;;;;;;;110.70;58.88;;;10.10;99.90;;;;;;5096505;28;20038;-55
2020/12/23 00:57:31;;;;;;;112.78;58.10;;;10.20;99.90;;;;;;5087845;28;20047;-53
2020/12/23 01:00:34;;;;;;;92.78;50.30;;;10.20;99.90;;;;;;5087496;28;20043;-58
2020/12/23 01:03:38;;;;;;;97.22;51.63;;;10.30;99.90;;;;;;5092399;28;20047;-57
2020/12/23 01:06:42;;;;;;;100.43;52.90;;;10.30;99.90;;;;;;5088974;28;20047;-55
2020/12/23 01:09:46;;;;;;;115.22;57.17;;;10.40;99.90;;;;;;5088695;28;20055;-56
2020/12/23 01:12:50;;;;;;;104.03;55.88;;;10.20;99.90;;;;;;5088322;28;20505;-58
2020/12/23 01:15:55;;;;;;;111.10;57.70;;;10.20;99.90;;;;;;5083305;28;20056;-55
2020/12/23 01:18:59;;;;;;;144.10;64.60;;;10.20;99.90;;;;;;5080168;28;20043;-58
2020/12/23 01:22:03;;;;;;;112.57;57.70;;;10.10;99.90;;;;;;5088923;28;20421;-58
2020/12/23 01:25:07;;;;;;;108.90;55.90;;;10.20;99.90;;;;;;5088685;28;20043;-54
2020/12/23 01:28:11;;;;;;;116.40;57.63;;;10.20;99.90;;;;;;5088576;28;20118;-58
2020/12/23 01:31:15;;;;;;;142.70;67.32;;;10.30;99.90;;;;;;5086639;28;20047;-58
2020/12/23 01:34:19;;;;;;;115.93;60.83;;;10.20;99.90;;;;;;5075692;28;20043;-55
2020/12/23 01:37:23;;;;;;;117.18;60.10;;;10.10;99.90;;;;;;5092870;28;20043;-54
2020/12/23 01:40:27;;;;;;;109.93;57.42;;;10.20;99.90;;;;;;5100446;28;20043;-54
2020/12/23 01:43:31;;;;;;;116.00;61.00;;;10.20;99.90;;;;;;5102092;28;20046;-59
2020/12/23 01:46:37;;;;;;;130.50;63.60;;;10.20;99.90;;;;;;5086296;28;20404;-54
2020/12/23 01:49:42;;;;;;;104.30;54.88;;;10.20;99.90;;;;;;5098616;28;20043;-54
2020/12/23 01:52:46;;;;;;;105.53;57.15;;;10.20;99.90;;;;;;5098612;28;20043;-58
2020/12/23 01:55:51;;;;;;;102.70;58.08;;;10.20;99.90;;;;;;5099544;28;20513;-56
2020/12/23 01:58:55;;;;;;;99.57;56.45;;;10.30;99.90;;;;;;5079933;28;20525;-54
2020/12/23 02:02:32;;;;;;;100.38;54.20;;;10.30;99.90;;;;;;5095283;28;20047;-54
2020/12/23 02:05:41;;;;;;;101.72;54.38;;;10.30;99.90;;;;;;5105317;28;20042;-57
2020/12/23 02:08:49;;;;;;;90.57;49.92;;;10.30;99.90;;;;;;5087554;28;20050;-59
2020/12/23 02:11:54;;;;;;;83.22;48.92;;;10.30;99.90;;;;;;5097738;28;20047;-54
2020/12/23 02:15:13;;;;;;;84.68;48.00;;;10.40;99.90;;;;;;5109154;28;20043;-58
2020/12/23 02:18:17;;;;;;;85.07;47.92;;;10.40;99.90;;;;;;5105773;28;20516;-55
2020/12/23 02:21:23;;;;;;;96.20;51.17;;;10.30;99.90;;;;;;5105311;28;20059;-58
2020/12/23 02:24:28;;;;;;;88.45;49.45;;;10.30;99.90;;;;;;5105978;28;20046;-56
2020/12/23 02:27:32;;;;;;;84.57;47.60;;;10.20;99.90;;;;;;5087686;28;20409;-55
2020/12/23 02:30:36;;;;;;;85.22;50.58;;;10.30;99.90;;;;;;5092601;28;20043;-59
2020/12/23 02:33:40;;;;;;;82.22;48.40;;;10.30;99.90;;;;;;5105413;28;20052;-54
2020/12/23 02:36:44;;;;;;;79.82;45.92;;;10.40;99.90;;;;;;5105443;28;20047;-54
2020/12/23 02:39:54;;;;;;;78.03;46.25;;;10.40;99.90;;;;;;5100387;28;20067;-54
2020/12/23 02:42:58;;;;;;;81.15;44.95;;;10.40;99.90;;;;;;5088663;28;20062;-56
2020/12/23 02:46:02;;;;;;;78.93;43.95;;;10.50;99.90;;;;;;5097252;28;20512;-54
2020/12/23 02:49:06;;;;;;;79.57;44.78;;;10.40;99.90;;;;;;5097002;28;20042;-57
2020/12/23 02:52:11;;;;;;;81.88;43.60;;;10.40;99.90;;;;;;5097316;28;20043;-56
2020/12/23 02:55:15;;;;;;;73.85;41.80;;;10.40;99.90;;;;;;5098926;28;20051;-56
2020/12/23 02:58:19;;;;;;;70.47;39.83;;;10.40;99.90;;;;;;5100406;28;20047;-58
2020/12/23 03:01:26;;;;;;;61.75;38.50;;;10.40;99.90;;;;;;5083150;28;20053;-58
2020/12/23 03:04:32;;;;;;;309.38;61.03;;;10.40;99.90;;;;;;5085275;28;20513;-56
2020/12/23 03:07:36;;;;;;;81.57;44.30;;;10.20;99.90;;;;;;5082290;28;20048;-57
2020/12/23 03:10:40;;;;;;;71.60;39.42;;;10.20;99.90;;;;;;5081283;28;20039;-58
2020/12/23 03:13:44;;;;;;;739.63;85.80;;;10.20;99.90;;;;;;5085162;28;20040;-58
2020/12/23 03:16:48;;;;;;;75.85;44.35;;;10.20;99.90;;;;;;5077515;28;20047;-59
2020/12/23 03:19:52;;;;;;;73.63;39.80;;;10.10;99.90;;;;;;5076493;28;20051;-56
2020/12/23 03:22:56;;;;;;;76.93;43.80;;;10.30;99.90;;;;;;5074180;28;20051;-57
2020/12/23 03:26:01;;;;;;;72.72;43.05;;;10.30;99.90;;;;;;5073580;28;20043;-58
2020/12/23 03:29:05;;;;;;;67.28;41.00;;;10.40;99.90;;;;;;5089445;28;20042;-58
2020/12/23 03:32:10;;;;;;;70.00;40.33;;;10.50;99.90;;;;;;5091243;28;20501;-54
2020/12/23 03:35:15;;;;;;;52.20;30.45;;;10.50;99.90;;;;;;5087272;28;20036;-56
2020/12/23 03:38:19;;;;;;;29.83;16.85;;;10.60;99.90;;;;;;5074057;28;20887;-55
2020/12/23 03:41:24;;;;;;;14.10;9.65;;;10.60;99.90;;;;;;5073230;28;20039;-57
2020/12/23 03:44:28;;;;;;;27.45;17.75;;;10.80;99.90;;;;;;5083645;28;20043;-57
2020/12/23 03:47:32;;;;;;;48.88;28.77;;;10.80;99.90;;;;;;5085636;28;20047;-55
2020/12/23 03:50:37;;;;;;;41.55;22.88;;;10.70;99.90;;;;;;5089837;28;20042;-56
2020/12/23 03:53:42;;;;;;;37.13;22.30;;;10.70;99.90;;;;;;5090191;28;20047;-59
2020/12/23 03:56:46;;;;;;;128.88;42.13;;;10.70;99.90;;;;;;5072912;28;20079;-54
2020/12/23 03:59:50;;;;;;;1145.63;105.32;;;10.50;99.90;;;;;;5073021;28;20394;-58
2020/12/23 04:02:54;;;;;;;231.52;52.88;;;10.20;99.90;;;;;;5087347;28;20032;-58
2020/12/23 04:05:58;;;;;;;288.65;52.85;;;10.10;99.90;;;;;;5103790;28;20049;-54
2020/12/23 04:09:03;;;;;;;76.93;43.08;;;10.10;99.90;;;;;;5102399;28;20042;-54
2020/12/23 04:12:07;;;;;;;629.88;67.32;;;10.20;99.90;;;;;;5100047;28;20063;-58
2020/12/23 04:15:12;;;;;;;86.07;44.95;;;10.20;99.90;;;;;;5083351;28;20046;-54
2020/12/23 04:18:16;;;;;;;85.35;45.13;;;10.20;99.90;;;;;;5095536;28;20050;-55
2020/12/23 04:21:20;;;;;;;90.57;45.30;;;10.20;99.90;;;;;;5095532;28;20094;-58
2020/12/23 04:24:25;;;;;;;85.60;43.20;;;10.30;99.90;;;;;;5107082;28;20437;-58
2020/12/23 04:27:30;;;;;;;152.38;46.90;;;10.40;99.90;;;;;;5090235;28;20070;-57
2020/12/23 04:30:34;;;;;;;176.82;48.45;;;10.30;99.90;;;;;;5084690;28;20038;-52
2020/12/23 04:33:38;;;;;;;69.88;39.22;;;10.30;99.90;;;;;;5095339;28;20035;-59
2020/12/23 04:36:42;;;;;;;72.80;38.30;;;10.30;99.90;;;;;;5091574;28;20062;-56
2020/12/23 04:39:46;;;;;;;66.05;37.20;;;10.30;99.90;;;;;;5087032;28;20059;-55
2020/12/23 04:42:51;;;;;;;52.85;31.55;;;10.30;99.90;;;;;;5079439;28;20043;-54
2020/12/23 04:45:57;;;;;;;54.47;30.58;;;10.40;99.90;;;;;;5070060;28;20517;-58
2020/12/23 04:49:03;;;;;;;244.70;47.70;;;10.40;99.90;;;;;;5094358;28;20532;-58
2020/12/23 04:52:08;;;;;;;452.48;59.22;;;10.40;99.90;;;;;;5095285;28;20054;-55
2020/12/23 04:55:12;;;;;;;74.75;38.75;;;10.30;99.90;;;;;;5095354;28;20043;-56
2020/12/23 04:58:16;;;;;;;59.70;35.90;;;10.20;99.90;;;;;;5097947;28;20517;-56
2020/12/23 05:01:21;;;;;;;57.45;32.25;;;10.30;99.90;;;;;;5094229;28;20051;-58
2020/12/23 05:04:26;;;;;;;39.70;23.90;;;10.40;99.90;;;;;;5093980;28;20047;-58
2020/12/23 05:07:30;;;;;;;25.25;15.70;;;10.50;99.90;;;;;;5093328;28;20070;-54
2020/12/23 05:10:34;;;;;;;10.35;7.20;;;10.60;99.90;;;;;;5095085;28;20409;-54
2020/12/23 05:13:39;;;;;;;13.38;10.35;;;10.90;99.90;;;;;;5092279;28;20039;-56
2020/12/23 05:16:43;;;;;;;10.55;7.20;;;11.00;99.90;;;;;;5093962;28;20046;-59
2020/12/23 05:19:47;;;;;;;15.50;7.75;;;11.00;99.90;;;;;;5107796;28;20089;-54
2020/12/23 05:22:53;;;;;;;7.90;5.18;;;11.00;99.90;;;;;;5107706;28;20132;-54
2020/12/23 05:26:07;;;;;;;8.18;5.18;;;11.00;99.90;;;;;;5101927;28;20071;-54
2020/12/23 05:29:14;;;;;;;7.07;4.60;;;11.10;99.90;;;;;;5093459;28;20038;-53
2020/12/23 05:32:22;;;;;;;6.70;4.60;;;11.10;99.90;;;;;;5098882;28;20039;-53
2020/12/23 05:35:28;;;;;;;10.75;4.97;;;11.10;99.90;;;;;;5109003;28;20034;-55
2020/12/23 05:38:33;;;;;;;9.27;5.25;;;11.10;99.90;;;;;;5106740;28;20039;-55
2020/12/23 05:41:38;;;;;;;8.05;4.90;;;11.20;99.90;;;;;;5097877;28;20047;-58
2020/12/23 05:44:50;;;;;;;95.40;26.17;;;11.20;99.90;;;;;;5097594;28;20051;-55
2020/12/23 05:47:54;;;;;;;34.70;21.45;;;10.90;99.90;;;;;;5094666;28;20517;-58
2020/12/23 05:50:59;;;;;;;46.78;14.07;;;10.70;99.90;;;;;;5097875;28;20567;-54
2020/12/23 05:54:06;;;;;;;19.58;11.43;;;10.80;99.90;;;;;;5107147;28;20035;-54
2020/12/23 05:57:10;;;;;;;290.77;31.00;;;10.80;99.90;;;;;;5094793;28;20051;-55
2020/12/23 06:00:14;;;;;;;22.75;15.73;;;10.60;99.90;;;;;;5103530;28;20046;-56
2020/12/23 06:03:36;;;;;;;20.80;14.70;;;10.50;99.90;;;;;;5107151;28;20050;-55
2020/12/23 06:06:44;;;;;;;20.15;12.73;;;10.60;99.90;;;;;;5103503;28;20039;-56
2020/12/23 06:09:49;;;;;;;24.02;15.32;;;10.60;99.90;;;;;;5088275;28;20051;-57
2020/12/23 06:12:56;;;;;;;141.13;30.67;;;10.60;99.90;;;;;;5087485;28;20063;-58
2020/12/23 06:16:02;;;;;;;1375.40;108.18;;;10.40;99.90;;;;;;5100419;28;20035;-57
2020/12/23 06:19:09;;;;;;;225.40;53.67;;;10.00;99.90;;;;;;5093332;28;20040;-59
2020/12/23 06:22:13;;;;;;;721.25;84.47;;;9.90;99.90;;;;;;5091577;28;20642;-56
2020/12/23 06:25:18;;;;;;;443.30;70.80;;;9.90;99.90;;;;;;5088465;28;20063;-57
2020/12/23 06:28:23;;;;;;;212.77;49.80;;;10.00;99.90;;;;;;5091589;28;20058;-60
2020/12/23 06:31:31;;;;;;;299.27;51.72;;;10.10;99.90;;;;;;5089344;28;20043;-58
2020/12/23 06:34:40;;;;;;;648.83;71.32;;;10.20;99.90;;;;;;5092299;28;20513;-54
2020/12/23 06:37:44;;;;;;;412.05;61.03;;;10.00;99.90;;;;;;5093305;28;20051;-54
2020/12/23 06:41:00;;;;;;;82.78;43.60;;;9.90;99.90;;;;;;5097871;28;20043;-57
2020/12/23 06:44:05;;;;;;;765.85;82.78;;;9.90;99.90;;;;;;5086618;28;20047;-55
2020/12/23 06:47:19;;;;;;;572.28;75.20;;;9.90;99.90;;;;;;5089488;28;20063;-54
2020/12/23 06:50:26;;;;;;;206.02;52.53;;;9.90;99.90;;;;;;5092350;28;20043;-58
2020/12/23 06:53:37;;;;;;;207.40;47.65;;;9.90;99.90;;;;;;5088627;28;20039;-58
2020/12/23 06:56:45;;;;;;;376.73;65.40;;;9.90;99.90;;;;;;5081400;28;20051;-53
2020/12/23 06:59:49;;;;;;;162.30;45.72;;;10.00;99.90;;;;;;5095077;28;20043;-55
2020/12/23 07:02:58;;;;;;;55.67;35.83;;;10.00;99.90;;;;;;5087933;28;20051;-55
2020/12/23 07:06:03;;;;;;;95.18;37.88;;;10.10;99.90;;;;;;5088005;28;20043;-54
2020/12/23 07:09:07;;;;;;;48.53;28.98;;;10.10;99.90;;;;;;5087979;28;20043;-55
2020/12/23 07:12:12;;;;;;;51.38;30.63;;;10.20;99.90;;;;;;5091143;28;20051;-55
2020/12/23 07:15:29;;;;;;;41.67;27.63;;;10.30;99.90;;;;;;5085451;28;20058;-55
2020/12/23 07:18:37;;;;;;;40.45;27.05;;;10.30;99.90;;;;;;5087922;28;20042;-56
2020/12/23 07:21:45;;;;;;;53.25;33.55;;;10.40;99.90;;;;;;5096990;28;20043;-54
2020/12/23 07:24:50;;;;;;;32.25;21.77;;;10.40;99.90;;;;;;5103101;28;20547;-58
2020/12/23 07:27:59;;;;;;;35.15;23.63;;;10.40;99.90;;;;;;5098993;28;20066;-55
2020/12/23 07:31:04;;;;;;;29.25;19.90;;;10.50;99.90;;;;;;5078793;28;20513;-54
2020/12/23 07:34:09;;;;;;;31.33;21.42;;;10.50;99.90;;;;;;5082992;28;20047;-55
2020/12/23 07:37:14;;;;;;;52.90;32.15;;;10.60;99.90;;;;;;5093210;28;20042;-56
2020/12/23 07:40:19;;;;;;;49.65;31.48;;;10.50;99.90;;;;;;5094768;28;20402;-55
2020/12/23 07:43:23;;;;;;;53.08;35.35;;;10.50;99.90;;;;;;5089074;28;20044;-55
2020/12/23 07:46:27;;;;;;;53.28;34.63;;;10.40;99.90;;;;;;5087105;28;20047;-59
2020/12/23 07:49:31;;;;;;;56.13;35.20;;;10.40;99.90;;;;;;5087551;28;20043;-54
2020/12/23 07:52:35;;;;;;;42.15;30.40;;;10.40;99.90;;;;;;5077270;28;20051;-55
2020/12/23 07:55:43;;;;;;;41.47;29.08;;;10.40;99.90;;;;;;5080346;28;20497;-55
2020/12/23 07:58:48;;;;;;;92.80;40.72;;;10.40;99.90;;;;;;5074112;28;20046;-52
2020/12/23 08:01:52;;;;;;;1028.03;92.85;;;10.40;99.90;;;;;;5083505;28;20048;-57
2020/12/23 08:04:56;;;;;;;1020.17;93.43;;;10.10;99.90;;;;;;5089580;28;20047;-55
2020/12/23 08:08:01;;;;;;;1521.03;127.97;;;10.10;99.90;;;;;;5094311;28;20028;-55
2020/12/23 08:11:13;;;;;;;1439.00;128.05;;;9.70;99.90;;;;;;5088397;28;20040;-55
2020/12/23 08:14:18;;;;;;;1564.43;145.63;;;9.70;99.90;;;;;;5086898;28;20036;-57
2020/12/23 08:17:23;;;;;;;1191.47;125.50;;;9.60;99.90;;;;;;5090277;28;20039;-53
2020/12/23 08:20:28;;;;;;;1329.40;140.50;;;9.60;99.90;;;;;;5088435;28;20040;-55
2020/12/23 08:23:32;;;;;;;895.90;116.43;;;9.50;99.90;;;;;;5093908;28;20046;-58
2020/12/23 08:26:37;;;;;;;311.50;69.68;;;9.60;99.90;;;;;;5082977;28;20050;-55
2020/12/23 08:29:42;;;;;;;154.60;58.45;;;9.80;99.90;;;;;;5078913;28;20055;-56
2020/12/23 08:32:54;;;;;;;272.40;69.50;;;9.90;99.90;;;;;;5090710;28;20047;-54
2020/12/23 08:36:03;;;;;;;;;;;9.90;99.90;;;;;;5088787;28;20035;-58
2020/12/23 08:39:08;;;;;;;459.05;74.10;;;10.00;99.90;;;;;;5096916;28;19923;-56
2020/12/23 08:42:12;;;;;;;466.17;74.50;;;10.00;99.90;;;;;;5086917;28;20094;-54
2020/12/23 08:45:22;;;;;;;291.13;71.53;;;10.00;99.90;;;;;;5080796;28;20055;-55
2020/12/23 08:48:30;;;;;;;299.92;65.28;;;10.00;99.90;;;;;;5084100;28;20042;-58
2020/12/23 08:51:35;;;;;;;94.43;51.85;;;10.10;99.90;;;;;;5091719;28;20050;-53
2020/12/23 08:54:41;;;;;;;72.78;44.70;;;10.20;99.90;;;;;;5082787;28;20047;-58
2020/12/23 08:57:46;;;;;;;75.03;42.28;;;10.30;99.90;;;;;;5095331;28;20575;-56
2020/12/23 09:00:58;;;;;;;93.40;44.63;;;10.40;99.90;;;;;;5086916;28;20043;-55
2020/12/23 09:04:09;;;;;;;41.85;27.10;;;10.50;99.90;;;;;;5088854;28;20066;-53
2020/12/23 09:07:20;;;;;;;416.55;69.82;;;10.70;99.90;;;;;;5079485;28;20525;-55
2020/12/23 09:10:24;;;;;;;36.05;21.27;;;10.90;99.90;;;;;;5087064;28;20054;-55
2020/12/23 09:13:33;;;;;;;28.83;18.25;;;11.00;99.90;;;;;;5095182;28;20405;-54
2020/12/23 09:16:37;;;;;;;25.98;16.77;;;11.00;99.90;;;;;;5089360;28;20039;-55
2020/12/23 09:19:48;;;;;;;20.70;14.35;;;11.00;99.90;;;;;;5108129;28;20051;-54
2020/12/23 09:22:53;;;;;;;20.20;12.63;;;11.10;99.90;;;;;;5093958;28;20516;-53
2020/12/23 09:25:57;;;;;;;14.65;10.68;;;11.20;99.90;;;;;;5091954;28;20059;-55
2020/12/23 09:29:04;;;;;;;14.38;9.85;;;11.30;99.90;;;;;;5080251;28;20059;-54
2020/12/23 09:32:09;;;;;;;15.25;9.15;;;11.40;99.90;;;;;;5078328;28;20521;-55
2020/12/23 09:35:26;;;;;;;11.10;8.18;;;11.30;99.90;;;;;;5068981;28;20043;-56
2020/12/23 09:38:36;;;;;;;12.10;8.15;;;11.40;99.90;;;;;;5079704;28;20035;-54
2020/12/23 09:41:40;;;;;;;13.15;7.30;;;11.40;99.90;;;;;;5087103;28;20043;-52
2020/12/23 09:44:44;;;;;;;12.60;9.13;;;11.40;99.90;;;;;;5071879;28;20066;-54
2020/12/23 09:47:48;;;;;;;11.32;8.82;;;11.30;99.90;;;;;;5068089;28;20039;-54
2020/12/23 09:50:54;;;;;;;14.60;8.63;;;11.30;99.90;;;;;;5069757;28;20051;-54
2020/12/23 09:53:58;;;;;;;11.43;8.40;;;11.40;99.90;;;;;;5072029;28;20048;-54
2020/12/23 09:57:02;;;;;;;13.48;8.40;;;11.40;99.90;;;;;;5071818;28;20418;-57
2020/12/23 10:00:07;;;;;;;14.23;8.65;;;11.50;99.90;;;;;;5070838;28;20043;-56
2020/12/23 10:03:17;;;;;;;11.15;8.63;;;11.50;99.90;;;;;;5071577;28;20067;-54
2020/12/23 10:06:21;;;;;;;18.10;9.63;;;11.50;99.90;;;;;;5094049;28;20047;-54
2020/12/23 10:09:25;;;;;;;15.13;8.48;;;11.40;99.90;;;;;;5097277;28;20500;-56
2020/12/23 10:12:29;;;;;;;14.52;8.35;;;11.50;99.90;;;;;;5099177;28;20051;-54
2020/12/23 10:15:33;;;;;;;12.55;8.68;;;11.50;99.90;;;;;;5091781;28;20034;-55
2020/12/23 10:18:38;;;;;;;16.38;9.95;;;11.50;99.90;;;;;;5086037;28;20393;-54
2020/12/23 10:21:42;;;;;;;12.38;9.27;;;11.50;99.90;;;;;;5096862;28;20046;-54
2020/12/23 10:24:46;;;;;;;18.63;10.52;;;11.40;99.90;;;;;;5097493;28;20055;-55
2020/12/23 10:27:50;;;;;;;16.67;9.70;;;11.50;99.90;;;;;;5098397;28;20047;-58
2020/12/23 10:30:55;;;;;;;14.13;9.13;;;11.40;99.90;;;;;;5101316;28;20043;-55
2020/12/23 10:33:58;;;;;;;19.40;14.88;;;11.40;99.90;;;;;;5082548;28;20031;-56
2020/12/23 10:37:03;;;;;;;16.60;9.75;;;11.10;99.90;;;;;;5083428;28;20031;-54
2020/12/23 10:40:08;;;;;;;17.75;11.73;;;11.20;99.90;;;;;;5096189;28;20078;-56
2020/12/23 10:43:12;;;;;;;18.73;11.32;;;11.20;99.90;;;;;;5104989;28;20476;-59
2020/12/23 10:46:16;;;;;;;20.42;14.18;;;11.00;99.90;;;;;;5082096;28;20043;-57
2020/12/23 10:49:22;;;;;;;18.85;8.60;;;11.10;99.90;;;;;;5087463;28;20544;-57
2020/12/23 10:52:27;;;;;;;20.02;13.10;;;11.20;99.90;;;;;;5096808;28;20042;-53
2020/12/23 10:55:31;;;;;;;13.68;8.75;;;11.20;99.90;;;;;;5096913;28;20043;-52
2020/12/23 10:58:36;;;;;;;16.33;9.82;;;11.30;99.90;;;;;;5096786;28;20047;-57
2020/12/23 11:01:40;;;;;;;38.03;22.02;;;11.30;99.90;;;;;;5097805;28;20028;-53
2020/12/23 11:04:46;;;;;;;18.48;12.05;;;11.30;99.90;;;;;;5083260;28;20035;-54
2020/12/23 11:07:51;;;;;;;50.10;29.48;;;11.40;99.90;;;;;;5105008;28;20039;-57
2020/12/23 11:10:55;;;;;;;17.30;11.18;;;11.40;99.90;;;;;;5103814;28;20050;-54
2020/12/23 11:13:59;;;;;;;19.35;10.70;;;11.50;99.90;;;;;;5102927;28;20035;-56
2020/12/23 11:17:03;;;;;;;16.27;10.65;;;11.40;99.90;;;;;;5087132;28;20035;-58
2020/12/23 11:20:07;;;;;;;20.35;13.57;;;11.40;99.90;;;;;;5096182;28;20536;-58
2020/12/23 11:23:26;;;;;;;16.23;9.85;;;11.40;99.90;;;;;;5096408;28;20046;-55
2020/12/23 11:26:30;;;;;;;25.38;14.70;;;11.40;99.90;;;;;;5096286;28;20051;-54
2020/12/23 11:29:34;;;;;;;13.05;8.02;;;11.40;99.90;;;;;;5096916;28;20047;-55
2020/12/23 11:32:38;;;;;;;7.85;6.85;;;11.40;99.90;;;;;;5101005;28;20054;-54
2020/12/23 11:35:42;;;;;;;36.33;24.25;;;11.40;99.90;;;;;;5086077;28;20046;-54
2020/12/23 11:38:46;;;;;;;102.22;54.58;;;11.50;99.90;;;;;;5096610;28;20054;-54
2020/12/23 11:41:55;;;;;;;12.00;8.50;;;11.60;99.90;;;;;;5095855;28;20063;-54
2020/12/23 11:44:59;;;;;;;11.98;8.18;;;11.50;99.90;;;;;;5096378;28;20043;-58
2020/12/23 11:48:04;;;;;;;31.30;15.77;;;11.40;99.90;;;;;;5098338;28;20498;-54
2020/12/23 11:51:09;;;;;;;31.08;18.27;;;11.40;99.90;;;;;;5087301;28;20512;-53
2020/12/23 11:54:13;;;;;;;44.17;33.15;;;11.50;99.90;;;;;;5082478;28;20035;-54
2020/12/23 11:57:18;;;;;;;15.77;10.27;;;11.50;99.90;;;;;;5095782;28;20035;-57
2020/12/23 12:00:22;;;;;;;27.15;18.95;;;11.40;99.90;;;;;;5095508;28;20043;-56
2020/12/23 12:03:26;;;;;;;17.15;12.52;;;11.40;99.90;;;;;;5094288;28;20046;-59
2020/12/23 12:06:31;;;;;;;16.30;11.13;;;11.40;99.90;;;;;;5095693;28;20409;-54
2020/12/23 12:09:35;;;;;;;20.38;14.32;;;11.50;99.90;;;;;;5095775;28;20690;-54
2020/12/23 12:12:38;;;;;;;14.20;8.60;;;11.50;99.90;;;;;;5095137;28;20558;-54
2020/12/23 12:15:42;;;;;;;17.95;12.57;;;11.40;99.90;;;;;;5101473;28;20062;-56
2020/12/23 12:18:47;;;;;;;15.00;8.48;;;11.30;99.90;;;;;;5086673;28;20046;-54
2020/12/23 12:21:51;;;;;;;28.35;18.17;;;11.30;99.90;;;;;;5094886;28;20062;-54
2020/12/23 12:24:56;;;;;;;13.15;9.05;;;11.40;99.90;;;;;;5095680;28;20401;-55
2020/12/23 12:28:03;;;;;;;12.73;6.63;;;11.40;99.90;;;;;;5095184;28;20031;-59
2020/12/23 12:31:07;;;;;;;11.02;6.28;;;11.40;99.90;;;;;;5097261;28;20062;-55
2020/12/23 12:34:11;;;;;;;17.35;10.25;;;11.40;99.90;;;;;;5092984;28;20047;-56
2020/12/23 12:37:16;;;;;;;12.30;8.80;;;11.50;99.90;;;;;;5076050;28;20043;-57
2020/12/23 12:40:38;;;;;;;7.35;5.45;;;11.50;99.90;;;;;;5103081;28;20408;-54
2020/12/23 12:43:42;;;;;;;10.30;6.90;;;11.50;99.90;;;;;;5103488;28;20059;-58
2020/12/23 12:46:47;;;;;;;13.18;6.63;;;11.50;99.90;;;;;;5103916;28;20043;-53
2020/12/23 12:49:52;;;;;;;16.58;7.32;;;11.60;99.90;;;;;;5101709;28;20405;-56
2020/12/23 12:53:15;;;;;;;11.65;8.07;;;11.70;99.90;;;;;;5088656;28;20062;-57
2020/12/23 12:56:27;;;;;;;9.77;6.10;;;11.60;99.90;;;;;;5088989;28;20050;-55
2020/12/23 12:59:31;;;;;;;10.82;6.65;;;11.60;99.90;;;;;;5085439;28;20047;-59
2020/12/23 13:02:35;;;;;;;9.55;6.40;;;11.60;99.90;;;;;;5094877;28;20398;-59
2020/12/23 13:05:42;;;;;;;16.33;10.18;;;11.60;99.90;;;;;;5105582;28;20042;-55
2020/12/23 13:08:46;;;;;;;10.60;6.82;;;11.60;99.90;;;;;;5099331;28;20071;-55
2020/12/23 13:11:50;;;;;;;8.23;6.35;;;11.50;99.90;;;;;;5082155;28;20062;-54
2020/12/23 13:14:54;;;;;;;25.55;8.68;;;11.60;99.90;;;;;;5093506;28;20394;-54
2020/12/23 13:17:58;;;;;;;14.32;7.25;;;11.60;99.90;;;;;;5094758;28;20046;-57
2020/12/23 13:21:02;;;;;;;13.05;7.85;;;11.60;99.90;;;;;;5096014;28;20051;-56
2020/12/23 13:24:11;;;;;;;13.27;7.60;;;11.50;99.90;;;;;;5099118;28;20039;-56
2020/12/23 13:27:15;;;;;;;12.52;8.43;;;11.50;99.90;;;;;;5089286;28;20051;-54
2020/12/23 13:30:20;;;;;;;15.68;7.88;;;11.50;99.90;;;;;;5097932;28;20413;-53
2020/12/23 13:33:24;;;;;;;22.63;16.52;;;11.50;99.90;;;;;;5098300;28;20039;-56
2020/12/23 13:36:28;;;;;;;12.30;9.23;;;11.50;99.90;;;;;;5098638;28;20047;-54
2020/12/23 13:39:32;;;;;;;12.95;8.18;;;11.50;99.90;;;;;;5101511;28;20043;-55
2020/12/23 13:42:37;;;;;;;9.95;6.90;;;11.50;99.90;;;;;;5101057;28;20043;-56
2020/12/23 13:45:56;;;;;;;13.30;11.10;;;11.50;99.90;;;;;;5078231;28;20051;-54
2020/12/23 13:49:00;;;;;;;12.40;6.90;;;11.40;99.90;;;;;;5106927;28;20055;-55
2020/12/23 13:52:10;;;;;;;10.18;7.28;;;11.40;99.90;;;;;;5106298;28;20043;-55
2020/12/23 13:55:14;;;;;;;8.75;6.47;;;11.40;99.90;;;;;;5106508;28;20051;-53
2020/12/23 13:58:18;;;;;;;11.90;7.97;;;11.40;99.90;;;;;;5087402;28;20047;-54
2020/12/23 14:01:23;;;;;;;11.82;8.40;;;11.40;99.90;;;;;;5086506;28;20039;-55
2020/12/23 14:04:26;;;;;;;15.10;8.43;;;11.40;99.90;;;;;;5080960;28;20043;-54
2020/12/23 14:07:31;;;;;;;17.00;9.50;;;11.40;99.90;;;;;;5098887;28;20517;-54
2020/12/23 14:10:35;;;;;;;9.13;6.68;;;11.40;99.90;;;;;;5094244;28;20038;-54
2020/12/23 14:13:39;;;;;;;14.75;9.82;;;11.30;99.90;;;;;;5088300;28;20039;-55
2020/12/23 14:16:42;;;;;;;13.23;9.25;;;11.30;99.90;;;;;;5097922;28;20039;-55
2020/12/23 14:19:46;;;;;;;21.67;17.15;;;11.30;99.90;;;;;;5097945;28;20042;-55
2020/12/23 14:22:50;;;;;;;30.13;22.88;;;11.40;99.90;;;;;;5097800;28;20608;-55
2020/12/23 14:29:17;;;;;;;13.40;8.00;;;11.30;99.90;;;;;;5100968;28;20043;-54
2020/12/23 14:32:21;;;;;;;10.82;7.50;;;11.40;99.90;;;;;;5088080;28;20401;-56
2020/12/23 14:35:25;;;;;;;8.68;7.13;;;11.40;99.90;;;;;;5097536;28;20031;-54
2020/12/23 14:38:29;;;;;;;10.77;9.05;;;11.40;99.90;;;;;;5097720;28;20047;-54
2020/12/23 14:41:34;;;;;;;12.00;7.90;;;11.30;99.90;;;;;;5097418;28;20310;-57
2020/12/23 14:44:38;;;;;;;12.70;7.45;;;11.40;99.90;;;;;;5099612;28;20047;-55
2020/12/23 14:47:42;;;;;;;8.18;6.30;;;11.40;99.90;;;;;;5099914;28;20496;-54
2020/12/23 14:50:46;;;;;;;7.13;6.25;;;11.40;99.90;;;;;;5096894;28;20050;-55
2020/12/23 14:53:52;;;;;;;9.50;6.68;;;11.40;99.90;;;;;;5096718;28;20046;-55
2020/12/23 14:56:56;;;;;;;6.03;4.85;;;11.40;99.90;;;;;;5097135;28;20038;-54
2020/12/23 15:00:00;;;;;;;12.20;10.27;;;11.40;99.90;;;;;;5099249;28;20552;-54
2020/12/23 15:03:04;;;;;;;12.88;8.80;;;11.40;99.90;;;;;;5089482;28;20529;-54
2020/12/23 15:06:15;;;;;;;7.85;6.10;;;11.40;99.90;;;;;;5101443;28;20058;-55
2020/12/23 15:09:20;;;;;;;7.85;6.18;;;11.50;99.90;;;;;;5105306;28;20046;-54
2020/12/23 15:12:24;;;;;;;9.32;6.20;;;11.40;99.90;;;;;;5096951;28;20517;-55
2020/12/23 15:15:28;;;;;;;8.18;5.75;;;11.40;99.90;;;;;;5079675;28;20035;-56
2020/12/23 15:18:32;;;;;;;8.60;7.15;;;11.40;99.90;;;;;;5083710;28;20031;-54
2020/12/23 15:21:38;;;;;;;6.57;5.22;;;11.40;99.90;;;;;;5096283;28;20640;-56
2020/12/23 15:24:42;;;;;;;10.38;6.22;;;11.40;99.90;;;;;;5096478;28;20115;-55
2020/12/23 15:27:46;;;;;;;13.43;7.72;;;11.30;99.90;;;;;;5098246;28;20505;-55
2020/12/23 15:30:50;;;;;;;16.85;8.48;;;11.30;99.90;;;;;;5099982;28;20039;-55
2020/12/23 15:33:54;;;;;;;15.70;8.70;;;11.30;99.90;;;;;;5084180;28;20039;-56
2020/12/23 15:36:59;;;;;;;16.67;9.65;;;11.30;99.90;;;;;;5096473;28;20030;-56
2020/12/23 15:40:06;;;;;;;19.70;11.00;;;11.30;99.90;;;;;;5096140;28;20615;-55
2020/12/23 15:43:10;;;;;;;28.38;12.68;;;11.30;99.90;;;;;;5096857;28;20055;-54
2020/12/23 15:46:14;;;;;;;16.67;11.38;;;11.30;99.90;;;;;;5091596;28;20047;-54